TimeCST,TemperatureF,Dew PointF,Humidity,Sea Level PressureIn,VisibilityMPH,Wind Direction,Wind SpeedMPH,Gust SpeedMPH,PrecipitationIn,Events,Conditions,WindDirDegrees,DateUTC
12:15 AM,1.4,-5.8,72,30.17,10.0,West,4.6,-,N/A,,Overcast,280,2013-01-14 06:15:00
12:34 AM,1.4,-5.8,72,30.18,10.0,WNW,3.5,-,N/A,,Overcast,290,2013-01-14 06:34:00
12:54 AM,1.4,-5.8,72,30.17,10.0,Calm,Calm,-,N/A,,Overcast,0,2013-01-14 06:54:00
1:15 AM,1.4,-5.8,72,30.18,10.0,Calm,Calm,-,N/A,,Overcast,0,2013-01-14 07:15:00
1:34 AM,1.4,-5.8,72,30.18,5.0,Calm,Calm,-,N/A,Snow,Light Snow,0,2013-01-14 07:34:00
1:54 AM,1.4,-5.8,72,30.18,5.0,Calm,Calm,-,N/A,Snow,Light Snow,0,2013-01-14 07:54:00
2:15 AM,1.4,-4.0,78,30.18,5.0,Calm,Calm,-,N/A,Snow,Light Snow,0,2013-01-14 08:15:00
2:34 AM,1.4,-4.0,78,30.19,5.0,SW,3.5,-,N/A,Snow,Light Snow,230,2013-01-14 08:34:00
2:54 AM,1.4,-4.0,78,30.19,5.0,Calm,Calm,-,N/A,Snow,Light Snow,0,2013-01-14 08:54:00
3:15 AM,1.4,-4.0,78,30.19,5.0,SW,3.5,-,N/A,Snow,Light Snow,220,2013-01-14 09:15:00
3:34 AM,1.4,-4.0,78,30.19,5.0,Calm,Calm,-,N/A,Snow,Light Snow,0,2013-01-14 09:34:00
3:54 AM,1.4,-4.0,78,30.18,7.0,Calm,Calm,-,N/A,Snow,Light Snow,0,2013-01-14 09:54:00
4:15 AM,1.4,-4.0,78,30.18,5.0,SSW,3.5,-,N/A,Snow,Light Snow,200,2013-01-14 10:15:00
4:34 AM,1.4,-4.0,78,30.18,10.0,SW,5.8,-,N/A,,Overcast,220,2013-01-14 10:34:00
4:55 AM,1.4,-4.0,78,30.18,10.0,SW,4.6,-,N/A,,Overcast,220,2013-01-14 10:55:00
5:14 AM,1.4,-4.0,78,30.18,10.0,SW,6.9,-,N/A,,Overcast,220,2013-01-14 11:14:00
5:35 AM,1.4,-4.0,78,30.18,10.0,SW,5.8,-,N/A,,Overcast,220,2013-01-14 11:35:00
5:54 AM,1.4,-4.0,78,30.18,10.0,SSW,5.8,-,N/A,,Overcast,210,2013-01-14 11:54:00
6:14 AM,1.4,-4.0,78,30.18,10.0,SW,4.6,-,N/A,,Overcast,220,2013-01-14 12:14:00
6:34 AM,1.4,-4.0,78,30.18,10.0,SW,4.6,-,N/A,,Overcast,220,2013-01-14 12:34:00
6:54 AM,1.4,-4.0,78,30.19,10.0,WSW,5.8,-,N/A,,Overcast,240,2013-01-14 12:54:00
7:14 AM,1.4,-4.0,78,30.20,10.0,SW,5.8,-,N/A,,Overcast,220,2013-01-14 13:14:00
7:34 AM,1.4,-4.0,78,30.20,7.0,SSW,4.6,-,N/A,,Overcast,210,2013-01-14 13:34:00
7:54 AM,1.4,-4.0,78,30.21,7.0,SSW,6.9,-,N/A,,Overcast,210,2013-01-14 13:54:00
8:14 AM,-0.4,-5.8,78,30.21,7.0,SSW,5.8,-,N/A,Snow,Light Snow,210,2013-01-14 14:14:00
8:34 AM,-2.2,-7.6,78,30.21,10.0,SSW,6.9,-,N/A,Snow,Light Snow,210,2013-01-14 14:34:00
8:54 AM,-2.2,-7.6,78,30.22,10.0,SW,6.9,-,N/A,Snow,Light Snow,230,2013-01-14 14:54:00
9:14 AM,-4.0,-9.4,78,30.22,10.0,SSW,6.9,-,N/A,,Clear,210,2013-01-14 15:14:00
9:34 AM,-2.2,-9.4,71,30.22,10.0,SSW,8.1,-,N/A,,Clear,210,2013-01-14 15:34:00
9:54 AM,-2.2,-9.4,71,30.23,10.0,SW,6.9,-,N/A,,Scattered Clouds,220,2013-01-14 15:54:00
10:14 AM,-2.2,-9.4,71,30.23,10.0,SW,5.8,-,N/A,Snow,Light Snow,220,2013-01-14 16:14:00
10:34 AM,-2.2,-9.4,71,30.23,10.0,SW,8.1,-,N/A,,Scattered Clouds,220,2013-01-14 16:34:00
10:54 AM,-2.2,-7.6,78,30.23,10.0,SW,9.2,-,N/A,,Clear,230,2013-01-14 16:54:00
11:14 AM,-2.2,-7.6,78,30.23,10.0,SW,8.1,-,N/A,,Clear,220,2013-01-14 17:14:00
11:34 AM,-0.4,-7.6,72,30.23,10.0,SW,9.2,-,N/A,,Clear,230,2013-01-14 17:34:00
12:14 PM,-0.4,-5.8,78,30.21,10.0,SW,9.2,-,N/A,Snow,Light Snow,220,2013-01-14 18:14:00
12:34 PM,1.4,-5.8,72,30.21,10.0,SW,8.1,-,N/A,,Mostly Cloudy,220,2013-01-14 18:34:00
12:54 PM,1.4,-4.0,78,30.21,7.0,SW,6.9,-,N/A,Snow,Light Snow,220,2013-01-14 18:54:00
1:14 PM,1.4,-4.0,78,30.20,10.0,SW,8.1,-,N/A,,Scattered Clouds,220,2013-01-14 19:14:00
1:32 PM,1.4,-4.0,78,30.20,10.0,North,-9999.0,-,N/A,Snow,Light Snow,0,2013-01-14 19:32:00
1:54 PM,3.2,-2.2,78,30.19,10.0,WSW,8.1,-,N/A,,Clear,240,2013-01-14 19:54:00
2:14 PM,3.2,-2.2,78,30.19,10.0,WSW,6.9,-,N/A,,Clear,240,2013-01-14 20:14:00
2:35 PM,3.2,-2.2,78,30.20,10.0,WSW,8.1,-,N/A,,Clear,240,2013-01-14 20:35:00
2:54 PM,3.2,-4.0,72,30.20,10.0,SW,9.2,-,N/A,,Clear,230,2013-01-14 20:54:00
3:14 PM,3.2,-4.0,72,30.20,10.0,SW,8.1,-,N/A,,Clear,230,2013-01-14 21:14:00
3:35 PM,1.4,-5.8,72,30.19,10.0,SW,8.1,-,N/A,,Clear,230,2013-01-14 21:35:00
4:14 PM,30.2,-5.8,21,30.19,10.0,SW,6.9,-,N/A,,Clear,230,2013-01-14 22:14:00
4:35 PM,-0.4,-7.6,72,30.18,10.0,North,-9999.0,-,N/A,,Clear,0,2013-01-14 22:35:00
4:54 PM,-0.4,-7.6,72,-9999,10.0,SW,8.1,-,N/A,,Clear,220,2013-01-14 22:54:00
5:14 PM,-0.4,-7.6,72,30.18,10.0,SW,6.9,-,N/A,,Clear,220,2013-01-14 23:14:00
5:34 PM,-2.2,-7.6,78,30.18,10.0,SW,4.6,-,N/A,,Clear,220,2013-01-14 23:34:00
5:54 PM,-5.8,-11.2,77,30.18,10.0,SW,3.5,-,N/A,,Clear,220,2013-01-14 23:54:00
6:14 PM,-4.0,-9.4,78,30.18,10.0,SW,3.5,-,N/A,,Clear,220,2013-01-15 00:14:00
6:34 PM,-5.8,-11.2,77,30.18,10.0,SSW,3.5,-,N/A,,Clear,200,2013-01-15 00:34:00
6:54 PM,-7.6,-13.0,77,30.17,10.0,SSW,3.5,-,N/A,,Clear,200,2013-01-15 00:54:00
7:14 PM,-4.0,-9.4,78,30.17,10.0,South,5.8,-,N/A,,Clear,190,2013-01-15 01:14:00
7:34 PM,-7.6,-13.0,77,30.17,10.0,South,4.6,-,N/A,,Clear,180,2013-01-15 01:34:00
7:55 PM,-7.6,-13.0,77,30.17,10.0,South,5.8,-,N/A,,Clear,190,2013-01-15 01:55:00
8:14 PM,-7.6,-13.0,77,30.16,10.0,South,5.8,-,N/A,,Scattered Clouds,190,2013-01-15 02:14:00
8:34 PM,-5.8,-11.2,77,30.15,10.0,SW,4.6,-,N/A,,Mostly Cloudy,220,2013-01-15 02:34:00
8:55 PM,-4.0,-9.4,78,30.15,10.0,SSW,3.5,-,N/A,,Scattered Clouds,200,2013-01-15 02:55:00
9:14 PM,-2.2,-7.6,78,30.15,10.0,SSW,3.5,-,N/A,,Clear,200,2013-01-15 03:14:00
9:34 PM,1.4,-5.8,72,30.14,10.0,SW,9.2,-,N/A,,Mostly Cloudy,220,2013-01-15 03:34:00
9:55 PM,1.4,-2.2,85,30.14,10.0,SSW,9.2,-,N/A,,Overcast,200,2013-01-15 03:55:00
10:14 PM,1.4,-2.2,85,30.13,10.0,SSW,9.2,-,N/A,,Overcast,210,2013-01-15 04:14:00
10:34 PM,1.4,-2.2,85,30.12,10.0,SSW,9.2,-,N/A,,Overcast,210,2013-01-15 04:34:00
10:55 PM,1.4,-4.0,78,30.12,10.0,SSW,9.2,-,N/A,,Mostly Cloudy,210,2013-01-15 04:55:00
11:14 PM,1.4,-5.8,72,30.11,10.0,SSW,9.2,-,N/A,,Scattered Clouds,200,2013-01-15 05:14:00
11:34 PM,-0.4,-5.8,78,30.11,10.0,South,8.1,-,N/A,,Mostly Cloudy,190,2013-01-15 05:34:00
11:55 PM,-2.2,-7.6,78,30.11,10.0,South,8.1,-,N/A,,Mostly Cloudy,190,2013-01-15 05:55:00